Time,TemperatureF,DewpointF,PressureIn,WindDirection,WindDirectionDegrees,WindSpeedMPH,WindSpeedGustMPH,Humidity,HourlyPrecipIn,Conditions,Clouds,dailyrainin,SolarRadiationWatts/m^2,SoftwareType,DateUTC
2013-06-04 00:05:00,52.9,43.4,30.11,NE,34,0.0,0.0,70,0.00,,,0.00,0,Wunderground v.1.15,2013-06-04 05:05:00,
2013-06-04 00:15:00,53.0,44.2,30.11,NE,34,0.0,0.0,72,0.00,,,0.00,0,Wunderground v.1.15,2013-06-04 05:15:00,
2013-06-04 00:25:00,52.0,42.9,30.11,NE,34,0.0,0.0,71,0.00,,,0.00,0,Wunderground v.1.15,2013-06-04 05:25:00,
2013-06-04 00:30:00,50.7,43.8,30.11,NE,34,0.0,0.0,77,0.00,,,0.00,0,Wunderground v.1.15,2013-06-04 05:30:00,
2013-06-04 00:40:00,52.3,43.2,30.12,NE,34,0.0,0.0,71,0.00,,,0.00,0,Wunderground v.1.15,2013-06-04 05:40:00,
2013-06-04 00:50:00,53.1,43.6,30.11,NE,34,0.0,1.0,70,0.00,,,0.00,0,Wunderground v.1.15,2013-06-04 05:50:00,
2013-06-04 01:00:00,50.6,43.7,30.11,NE,34,0.0,0.0,77,0.00,,,0.00,0,Wunderground v.1.15,2013-06-04 06:00:00,
2013-06-04 01:05:00,50.0,43.4,30.11,NE,34,0.0,0.0,78,0.00,,,0.00,0,Wunderground v.1.15,2013-06-04 06:05:00,
2013-06-04 01:15:00,52.2,42.7,30.11,NE,34,0.0,0.0,70,0.00,,,0.00,0,Wunderground v.1.15,2013-06-04 06:15:00,
2013-06-04 01:25:00,52.2,43.8,30.11,NE,34,0.0,0.0,73,0.00,,,0.00,0,Wunderground v.1.15,2013-06-04 06:25:00,
2013-06-04 01:30:00,50.6,43.7,30.11,NE,34,0.0,0.0,77,0.00,,,0.00,0,Wunderground v.1.15,2013-06-04 06:30:00,
2013-06-04 01:40:00,49.0,43.4,30.11,NE,34,0.0,0.0,81,0.00,,,0.00,0,Wunderground v.1.15,2013-06-04 06:40:00,
2013-06-04 01:50:00,48.6,43.4,30.11,NE,34,0.0,0.0,82,0.00,,,0.00,0,Wunderground v.1.15,2013-06-04 06:50:00,
2013-06-04 02:00:00,49.4,43.8,30.10,NE,34,0.0,0.0,81,0.00,,,0.00,0,Wunderground v.1.15,2013-06-04 07:00:00,
2013-06-04 02:05:00,49.9,44.9,30.11,NE,34,0.0,0.0,83,0.00,,,0.00,0,Wunderground v.1.15,2013-06-04 07:05:00,
2013-06-04 02:10:00,49.5,43.6,30.11,NE,34,0.0,0.0,80,0.00,,,0.00,0,Wunderground v.1.15,2013-06-04 07:10:00,
2013-06-04 02:20:00,49.5,43.9,30.11,NE,34,0.0,0.0,81,0.00,,,0.00,0,Wunderground v.1.15,2013-06-04 07:20:00,
2013-06-04 02:25:00,49.8,43.9,30.11,NE,34,0.0,0.0,80,0.00,,,0.00,0,Wunderground v.1.15,2013-06-04 07:25:00,
2013-06-04 02:35:00,49.3,43.7,30.10,NE,34,0.0,0.0,81,0.00,,,0.00,0,Wunderground v.1.15,2013-06-04 07:35:00,
2013-06-04 02:45:00,49.1,44.8,30.10,NE,34,0.0,0.0,85,0.00,,,0.00,0,Wunderground v.1.15,2013-06-04 07:45:00,
2013-06-04 02:55:00,47.8,43.5,30.10,NE,34,0.0,0.0,85,0.00,,,0.00,0,Wunderground v.1.15,2013-06-04 07:55:00,
2013-06-04 03:05:00,48.6,44.0,30.10,NE,34,0.0,0.0,84,0.00,,,0.00,0,Wunderground v.1.15,2013-06-04 08:05:00,
2013-06-04 03:15:00,48.0,44.0,30.10,NE,34,0.0,0.0,86,0.00,,,0.00,0,Wunderground v.1.15,2013-06-04 08:15:00,
2013-06-04 03:20:00,48.4,44.1,30.10,NE,34,0.0,0.0,85,0.00,,,0.00,0,Wunderground v.1.15,2013-06-04 08:20:00,
2013-06-04 03:30:00,48.6,44.0,30.10,NE,34,0.0,0.0,84,0.00,,,0.00,0,Wunderground v.1.15,2013-06-04 08:30:00,
2013-06-04 03:40:00,49.2,44.3,30.11,NE,34,0.0,0.0,83,0.00,,,0.00,0,Wunderground v.1.15,2013-06-04 08:40:00,
2013-06-04 03:50:00,50.2,44.9,30.11,NE,34,0.0,0.0,82,0.00,,,0.00,0,Wunderground v.1.15,2013-06-04 08:50:00,
2013-06-04 03:55:00,50.9,46.9,30.11,NE,34,0.0,0.0,86,0.00,,,0.00,0,Wunderground v.1.15,2013-06-04 08:55:00,
2013-06-04 04:05:00,50.9,46.9,30.11,NE,34,0.0,0.0,86,0.00,,,0.00,0,Wunderground v.1.15,2013-06-04 09:05:00,
2013-06-04 04:15:00,51.3,47.6,30.12,NE,34,0.0,0.0,87,0.00,,,0.00,0,Wunderground v.1.15,2013-06-04 09:15:00,
2013-06-04 04:20:00,51.2,47.5,30.11,NE,34,0.0,0.0,87,0.00,,,0.00,0,Wunderground v.1.15,2013-06-04 09:20:00,
2013-06-04 04:30:00,50.9,47.2,30.12,NE,34,0.0,0.0,87,0.00,,,0.00,0,Wunderground v.1.15,2013-06-04 09:30:00,
2013-06-04 04:40:00,50.6,47.5,30.12,NE,34,0.0,0.0,89,0.00,,,0.00,0,Wunderground v.1.15,2013-06-04 09:40:00,
2013-06-04 04:50:00,51.2,47.8,30.12,NE,34,0.0,0.0,88,0.00,,,0.00,0,Wunderground v.1.15,2013-06-04 09:50:00,
2013-06-04 05:00:00,50.8,46.8,30.13,NE,34,0.0,0.0,86,0.00,,,0.00,0,Wunderground v.1.15,2013-06-04 10:00:00,
2013-06-04 05:05:00,50.2,46.2,30.13,NE,34,0.0,0.0,86,0.00,,,0.00,0,Wunderground v.1.15,2013-06-04 10:05:00,
2013-06-04 05:15:00,50.9,45.3,30.13,NE,34,0.0,0.0,81,0.00,,,0.00,0,Wunderground v.1.15,2013-06-04 10:15:00,
2013-06-04 05:20:00,51.7,45.4,30.13,South,178,0.0,0.0,79,0.00,,,0.00,0,Wunderground v.1.15,2013-06-04 10:20:00,
2013-06-04 05:30:00,51.5,45.9,30.13,South,180,0.0,0.0,81,0.00,,,0.00,11,Wunderground v.1.15,2013-06-04 10:30:00,
2013-06-04 05:40:00,50.0,44.7,30.14,SE,128,1.0,1.0,82,0.00,,,0.00,25,Wunderground v.1.15,2013-06-04 10:40:00,
2013-06-04 05:50:00,49.3,45.3,30.13,SE,128,0.0,0.0,86,0.00,,,0.00,33,Wunderground v.1.15,2013-06-04 10:50:00,
2013-06-04 06:00:00,49.1,45.7,30.13,SE,128,0.0,0.0,88,0.00,,,0.00,42,Wunderground v.1.15,2013-06-04 11:00:00,
2013-06-04 06:10:00,49.7,45.7,30.13,SE,128,0.0,0.0,86,0.00,,,0.00,54,Wunderground v.1.15,2013-06-04 11:10:00,
2013-06-04 06:15:00,49.7,46.3,30.13,SE,128,0.0,0.0,88,0.00,,,0.00,63,Wunderground v.1.15,2013-06-04 11:15:00,
2013-06-04 06:25:00,49.9,46.2,30.13,SE,128,0.0,0.0,87,0.00,,,0.00,60,Wunderground v.1.15,2013-06-04 11:25:00,
2013-06-04 06:35:00,50.9,46.2,30.13,SE,128,0.0,0.0,84,0.00,,,0.00,65,Wunderground v.1.15,2013-06-04 11:35:00,
2013-06-04 06:45:00,51.6,46.0,30.14,SE,128,0.0,0.0,81,0.00,,,0.00,77,Wunderground v.1.15,2013-06-04 11:45:00,
2013-06-04 06:50:00,51.8,46.8,30.14,SE,128,0.0,0.0,83,0.00,,,0.00,98,Wunderground v.1.15,2013-06-04 11:50:00,
2013-06-04 07:00:00,53.1,47.4,30.15,SE,128,0.0,0.0,81,0.00,,,0.00,116,Wunderground v.1.15,2013-06-04 12:00:00,
2013-06-04 07:10:00,54.2,46.8,30.15,SE,128,0.0,0.0,76,0.00,,,0.00,111,Wunderground v.1.15,2013-06-04 12:10:00,
2013-06-04 07:15:00,54.7,46.9,30.15,SE,128,0.0,0.0,75,0.00,,,0.00,74,Wunderground v.1.15,2013-06-04 12:15:00,
2013-06-04 07:20:00,54.7,47.3,30.15,SE,128,0.0,0.0,76,0.00,,,0.00,243,Wunderground v.1.15,2013-06-04 12:20:00,
2013-06-04 07:30:00,55.1,47.7,30.15,SSE,165,0.0,0.0,76,0.00,,,0.00,327,Wunderground v.1.15,2013-06-04 12:30:00,
2013-06-04 07:35:00,55.7,47.9,30.15,SSE,153,1.0,1.0,75,0.00,,,0.00,318,Wunderground v.1.15,2013-06-04 12:35:00,
2013-06-04 07:40:00,56.7,47.8,30.15,SSE,153,0.0,2.0,72,0.00,,,0.00,367,Wunderground v.1.15,2013-06-04 12:40:00,
2013-06-04 07:50:00,57.6,47.1,30.15,East,101,0.0,1.0,68,0.00,,,0.00,385,Wunderground v.1.15,2013-06-04 12:50:00,
2013-06-04 07:55:00,58.3,47.4,30.15,East,101,0.0,0.0,67,0.00,,,0.00,403,Wunderground v.1.15,2013-06-04 12:55:00,
2013-06-04 08:00:00,58.8,47.9,30.15,East,101,0.0,0.0,67,0.00,,,0.00,399,Wunderground v.1.15,2013-06-04 13:00:00,
2013-06-04 08:05:00,59.2,49.0,30.16,ESE,103,0.0,0.0,69,0.00,,,0.00,390,Wunderground v.1.15,2013-06-04 13:05:00,
2013-06-04 08:15:00,60.1,49.1,30.16,ESE,104,0.0,0.0,67,0.00,,,0.00,432,Wunderground v.1.15,2013-06-04 13:15:00,
2013-06-04 08:25:00,60.9,47.4,30.16,East,84,0.0,1.0,61,0.00,,,0.00,473,Wunderground v.1.15,2013-06-04 13:25:00,
2013-06-04 08:30:00,61.2,47.2,30.16,SSE,161,0.0,0.0,60,0.00,,,0.00,522,Wunderground v.1.15,2013-06-04 13:30:00,
2013-06-04 08:40:00,62.0,47.5,30.17,SE,128,0.0,0.0,59,0.00,,,0.00,645,Wunderground v.1.15,2013-06-04 13:40:00,
2013-06-04 08:50:00,62.1,46.7,30.17,SE,128,0.0,0.0,57,0.00,,,0.00,476,Wunderground v.1.15,2013-06-04 13:50:00,
2013-06-04 09:00:00,62.6,47.1,30.17,ESE,121,1.0,1.0,57,0.00,,,0.00,276,Wunderground v.1.15,2013-06-04 14:00:00,
2013-06-04 09:05:00,62.6,48.5,30.17,ESE,111,1.0,1.0,60,0.00,,,0.00,534,Wunderground v.1.15,2013-06-04 14:05:00,
2013-06-04 09:15:00,63.5,46.1,30.17,East,79,1.0,2.0,53,0.00,,,0.00,591,Wunderground v.1.15,2013-06-04 14:15:00,
2013-06-04 09:25:00,63.8,47.8,30.17,SE,139,1.0,2.0,56,0.00,,,0.00,814,Wunderground v.1.15,2013-06-04 14:25:00,
2013-06-04 09:30:00,64.1,46.6,30.16,ESE,107,1.0,2.0,53,0.00,,,0.00,661,Wunderground v.1.15,2013-06-04 14:30:00,
2013-06-04 09:40:00,64.4,47.9,30.16,SE,132,1.0,1.0,55,0.00,,,0.00,719,Wunderground v.1.15,2013-06-04 14:40:00,
2013-06-04 09:50:00,65.0,47.9,30.16,ENE,71,2.0,2.0,54,0.00,,,0.00,729,Wunderground v.1.15,2013-06-04 14:50:00,
2013-06-04 10:00:00,65.2,47.6,30.16,East,86,3.0,3.0,53,0.00,,,0.00,773,Wunderground v.1.15,2013-06-04 15:00:00,
2013-06-04 10:05:00,65.3,47.2,30.16,NE,51,3.0,3.0,52,0.00,,,0.00,777,Wunderground v.1.15,2013-06-04 15:05:00,
2013-06-04 10:15:00,65.4,45.7,30.17,NE,53,1.0,3.0,49,0.00,,,0.00,800,Wunderground v.1.15,2013-06-04 15:15:00,
2013-06-04 10:25:00,65.1,47.0,30.17,SE,126,1.0,1.0,52,0.00,,,0.00,858,Wunderground v.1.15,2013-06-04 15:25:00,
2013-06-04 10:35:00,65.9,46.7,30.17,ESE,119,3.0,4.0,50,0.00,,,0.00,805,Wunderground v.1.15,2013-06-04 15:35:00,
2013-06-04 10:40:00,66.0,47.3,30.17,East,100,1.0,3.0,51,0.00,,,0.00,951,Wunderground v.1.15,2013-06-04 15:40:00,
2013-06-04 10:50:00,66.2,45.9,30.17,ESE,121,3.0,3.0,48,0.00,,,0.00,610,Wunderground v.1.15,2013-06-04 15:50:00,
2013-06-04 11:00:00,65.7,46.5,30.17,ESE,111,1.0,1.0,50,0.00,,,0.00,364,Wunderground v.1.15,2013-06-04 16:00:00,
2013-06-04 11:05:00,65.9,45.1,30.18,SE,138,2.0,2.0,47,0.00,,,0.00,1062,Wunderground v.1.15,2013-06-04 16:05:00,
2013-06-04 11:10:00,66.6,44.6,30.18,North,5,2.0,2.0,45,0.00,,,0.00,1044,Wunderground v.1.15,2013-06-04 16:10:00,
2013-06-04 11:20:00,65.3,44.5,30.17,West,277,1.0,1.0,47,0.00,,,0.00,701,Wunderground v.1.15,2013-06-04 16:20:00,
2013-06-04 11:25:00,65.7,47.1,30.17,SSW,211,0.0,2.0,51,0.00,,,0.00,775,Wunderground v.1.15,2013-06-04 16:25:00,
2013-06-04 11:35:00,65.7,46.0,30.17,SSW,200,2.0,5.0,49,0.00,,,0.00,689,Wunderground v.1.15,2013-06-04 16:35:00,
2013-06-04 11:40:00,66.7,48.0,30.17,SSE,156,2.0,11.0,51,0.00,,,0.00,998,Wunderground v.1.15,2013-06-04 16:40:00,
2013-06-04 11:50:00,67.2,46.8,30.17,SW,222,1.0,2.0,48,0.00,,,0.00,1002,Wunderground v.1.15,2013-06-04 16:50:00,
2013-06-04 12:00:00,68.2,48.8,30.17,SE,139,2.0,2.0,50,0.00,,,0.00,1042,Wunderground v.1.15,2013-06-04 17:00:00,
2013-06-04 12:05:00,68.4,46.8,30.16,West,273,1.0,2.0,46,0.00,,,0.00,582,Wunderground v.1.15,2013-06-04 17:05:00,
2013-06-04 12:15:00,67.9,46.3,30.16,SSE,148,0.0,0.0,46,0.00,,,0.00,554,Wunderground v.1.15,2013-06-04 17:15:00,
2013-06-04 12:25:00,68.3,45.5,30.16,SSE,148,3.0,4.0,44,0.00,,,0.00,687,Wunderground v.1.15,2013-06-04 17:25:00,
2013-06-04 12:35:00,68.1,47.1,30.15,SE,137,1.0,2.0,47,0.00,,,0.00,679,Wunderground v.1.15,2013-06-04 17:35:00,
2013-06-04 12:45:00,68.5,46.9,30.15,East,98,1.0,4.0,46,0.00,,,0.00,621,Wunderground v.1.15,2013-06-04 17:45:00,
2013-06-04 12:55:00,67.6,44.9,30.16,West,266,2.0,2.0,44,0.00,,,0.00,573,Wunderground v.1.15,2013-06-04 17:55:00,
2013-06-04 13:05:00,68.1,46.5,30.16,South,169,1.0,1.0,46,0.00,,,0.00,497,Wunderground v.1.15,2013-06-04 18:05:00,
2013-06-04 13:15:00,68.1,45.9,30.16,SE,134,1.0,2.0,45,0.00,,,0.00,645,Wunderground v.1.15,2013-06-04 18:15:00,
2013-06-04 13:25:00,68.8,45.4,30.15,ENE,58,1.0,2.0,43,0.00,,,0.00,503,Wunderground v.1.15,2013-06-04 18:25:00,
2013-06-04 13:30:00,68.8,46.6,30.15,SE,142,2.0,2.0,45,0.00,,,0.00,454,Wunderground v.1.15,2013-06-04 18:30:00,
2013-06-04 13:40:00,68.6,48.1,30.15,SE,137,1.0,4.0,48,0.00,,,0.00,441,Wunderground v.1.15,2013-06-04 18:40:00,
2013-06-04 13:45:00,68.7,47.6,30.15,East,83,1.0,4.0,47,0.00,,,0.00,494,Wunderground v.1.15,2013-06-04 18:45:00,
2013-06-04 13:55:00,69.3,48.2,30.15,South,181,1.0,1.0,47,0.00,,,0.00,742,Wunderground v.1.15,2013-06-04 18:55:00,
2013-06-04 14:00:00,69.8,47.5,30.14,SSE,166,2.0,6.0,45,0.00,,,0.00,795,Wunderground v.1.15,2013-06-04 19:00:00,
2013-06-04 14:05:00,70.0,47.7,30.14,ENE,73,2.0,6.0,45,0.00,,,0.00,663,Wunderground v.1.15,2013-06-04 19:05:00,
2013-06-04 14:15:00,70.2,45.4,30.14,ESE,106,1.0,1.0,41,0.00,,,0.00,476,Wunderground v.1.15,2013-06-04 19:15:00,
2013-06-04 14:25:00,69.7,46.8,30.13,ESE,117,3.0,9.0,44,0.00,,,0.00,552,Wunderground v.1.15,2013-06-04 19:25:00,
2013-06-04 14:35:00,70.6,47.0,30.13,SE,144,2.0,9.0,43,0.00,,,0.00,854,Wunderground v.1.15,2013-06-04 19:35:00,
2013-06-04 14:45:00,70.0,45.8,30.13,ESE,122,2.0,2.0,42,0.00,,,0.00,677,Wunderground v.1.15,2013-06-04 19:45:00,
2013-06-04 14:55:00,69.5,47.2,30.13,ESE,116,3.0,7.0,45,0.00,,,0.00,466,Wunderground v.1.15,2013-06-04 19:55:00,
2013-06-04 15:00:00,69.2,45.7,30.12,ESE,112,2.0,2.0,43,0.00,,,0.00,483,Wunderground v.1.15,2013-06-04 20:00:00,
2013-06-04 15:05:00,69.2,46.4,30.12,SE,135,2.0,2.0,44,0.00,,,0.00,410,Wunderground v.1.15,2013-06-04 20:05:00,
2013-06-04 15:15:00,68.6,45.8,30.13,SSE,147,1.0,2.0,44,0.00,,,0.00,366,Wunderground v.1.15,2013-06-04 20:15:00,
2013-06-04 15:20:00,68.4,45.6,30.13,NNE,24,2.0,6.0,44,0.00,,,0.00,336,Wunderground v.1.15,2013-06-04 20:20:00,
2013-06-04 15:30:00,68.4,46.2,30.13,East,98,2.0,3.0,45,0.00,,,0.00,599,Wunderground v.1.15,2013-06-04 20:30:00,
2013-06-04 15:40:00,68.8,46.0,30.13,NE,38,2.0,2.0,44,0.00,,,0.00,346,Wunderground v.1.15,2013-06-04 20:40:00,
2013-06-04 15:50:00,68.2,42.9,30.12,East,96,4.0,4.0,40,0.00,,,0.00,431,Wunderground v.1.15,2013-06-04 20:50:00,
2013-06-04 16:00:00,68.4,45.6,30.13,ESE,119,2.0,2.0,44,0.00,,,0.00,413,Wunderground v.1.15,2013-06-04 21:00:00,
2013-06-04 16:05:00,68.1,44.7,30.13,East,90,2.0,2.0,43,0.00,,,0.00,376,Wunderground v.1.15,2013-06-04 21:05:00,
2013-06-04 16:15:00,68.1,44.7,30.13,ESE,115,2.0,2.0,43,0.00,,,0.00,526,Wunderground v.1.15,2013-06-04 21:15:00,
2013-06-04 16:20:00,68.2,44.8,30.12,SE,139,2.0,2.0,43,0.00,,,0.00,478,Wunderground v.1.15,2013-06-04 21:20:00,
2013-06-04 16:30:00,67.9,44.6,30.13,ENE,63,2.0,2.0,43,0.00,,,0.00,339,Wunderground v.1.15,2013-06-04 21:30:00,
2013-06-04 16:35:00,67.5,44.2,30.13,East,82,1.0,2.0,43,0.00,,,0.00,244,Wunderground v.1.15,2013-06-04 21:35:00,
2013-06-04 16:45:00,67.0,44.4,30.12,SE,134,2.0,5.0,44,0.00,,,0.00,383,Wunderground v.1.15,2013-06-04 21:45:00,
2013-06-04 16:55:00,67.6,44.9,30.11,ESE,113,2.0,2.0,44,0.00,,,0.00,338,Wunderground v.1.15,2013-06-04 21:55:00,
2013-06-04 17:05:00,67.0,44.4,30.12,ENE,66,2.0,2.0,44,0.00,,,0.00,244,Wunderground v.1.15,2013-06-04 22:05:00,
2013-06-04 17:15:00,66.3,43.1,30.12,East,90,1.0,4.0,43,0.00,,,0.00,179,Wunderground v.1.15,2013-06-04 22:15:00,
2013-06-04 17:20:00,65.9,42.1,30.12,ESE,121,2.0,2.0,42,0.00,,,0.00,155,Wunderground v.1.15,2013-06-04 22:20:00,
2013-06-04 17:30:00,65.7,44.3,30.12,SE,134,0.0,2.0,46,0.00,,,0.00,169,Wunderground v.1.15,2013-06-04 22:30:00,
2013-06-04 17:35:00,65.6,44.3,30.11,ESE,121,0.0,2.0,46,0.00,,,0.00,144,Wunderground v.1.15,2013-06-04 22:35:00,
2013-06-04 17:45:00,65.0,43.7,30.10,ESE,118,1.0,2.0,46,0.00,,,0.00,100,Wunderground v.1.15,2013-06-04 22:45:00,
2013-06-04 17:55:00,64.6,42.2,30.11,ESE,109,1.0,2.0,44,0.00,,,0.00,97,Wunderground v.1.15,2013-06-04 22:55:00,
2013-06-04 18:00:00,64.5,42.1,30.10,East,100,1.0,1.0,44,0.00,,,0.00,90,Wunderground v.1.15,2013-06-04 23:00:00,
2013-06-04 18:05:00,64.4,43.2,30.09,East,88,0.0,1.0,46,0.00,,,0.00,56,Wunderground v.1.15,2013-06-04 23:05:00,
2013-06-04 18:15:00,63.8,42.6,30.07,SE,129,1.0,3.0,46,0.00,,,0.00,65,Wunderground v.1.15,2013-06-04 23:15:00,
2013-06-04 18:25:00,63.4,42.8,30.10,SE,130,3.0,3.0,47,0.00,,,0.00,49,Wunderground v.1.15,2013-06-04 23:25:00,
2013-06-04 18:30:00,63.3,43.3,30.09,SE,146,1.0,1.0,48,0.00,,,0.00,26,Wunderground v.1.15,2013-06-04 23:30:00,
2013-06-04 18:40:00,62.9,43.4,30.08,SE,142,1.0,4.0,49,0.00,,,0.00,28,Wunderground v.1.15,2013-06-04 23:40:00,
2013-06-04 18:50:00,62.6,44.2,30.09,ESE,113,1.0,3.0,51,0.00,,,0.00,26,Wunderground v.1.15,2013-06-04 23:50:00,
2013-06-04 19:00:00,62.2,43.8,30.11,ESE,108,1.0,1.0,51,0.00,,,0.00,16,Wunderground v.1.15,2013-06-05 00:00:00,
2013-06-04 19:10:00,61.8,44.5,30.12,South,169,1.0,1.0,53,0.00,,,0.00,21,Wunderground v.1.15,2013-06-05 00:10:00,
2013-06-04 19:20:00,61.2,45.4,30.13,East,84,0.0,1.0,56,0.00,,,0.00,14,Wunderground v.1.15,2013-06-05 00:20:00,
2013-06-04 19:30:00,60.7,47.6,30.13,ENE,67,0.0,0.0,62,0.00,,,0.00,7,Wunderground v.1.15,2013-06-05 00:30:00,
2013-06-04 19:35:00,60.3,46.4,30.13,ENE,65,0.0,2.0,60,0.00,,,0.00,9,Wunderground v.1.15,2013-06-05 00:35:00,
2013-06-04 19:45:00,59.4,46.4,30.13,SE,126,0.0,0.0,62,0.00,,,0.00,9,Wunderground v.1.15,2013-06-05 00:45:00,
2013-06-04 19:55:00,58.6,46.0,30.13,ESE,121,1.0,1.0,63,0.00,,,0.00,0,Wunderground v.1.15,2013-06-05 00:55:00,
2013-06-04 20:05:00,58.1,46.4,30.13,ENE,78,0.0,0.0,65,0.00,,,0.00,0,Wunderground v.1.15,2013-06-05 01:05:00,
2013-06-04 20:10:00,58.0,46.3,30.13,East,95,0.0,0.0,65,0.00,,,0.00,0,Wunderground v.1.15,2013-06-05 01:10:00,
2013-06-04 20:20:00,57.2,45.9,30.13,NW,313,1.0,1.0,66,0.00,,,0.00,0,Wunderground v.1.15,2013-06-05 01:20:00,
2013-06-04 20:30:00,56.6,45.8,30.13,NE,55,1.0,4.0,67,0.00,,,0.00,0,Wunderground v.1.15,2013-06-05 01:30:00,
2013-06-04 20:35:00,56.2,45.4,30.13,East,95,1.0,4.0,67,0.00,,,0.00,0,Wunderground v.1.15,2013-06-05 01:35:00,
2013-06-04 20:45:00,55.7,45.7,30.13,NNE,24,2.0,2.0,69,0.00,,,0.00,0,Wunderground v.1.15,2013-06-05 01:45:00,
2013-06-04 20:55:00,55.1,45.5,30.13,NNE,16,1.0,2.0,70,0.00,,,0.00,0,Wunderground v.1.15,2013-06-05 01:55:00,
2013-06-04 21:00:00,54.7,44.3,30.13,East,101,1.0,1.0,68,0.00,,,0.00,0,Wunderground v.1.15,2013-06-05 02:00:00,
2013-06-04 21:10:00,54.5,44.5,30.13,SE,124,1.0,3.0,69,0.00,,,0.00,0,Wunderground v.1.15,2013-06-05 02:10:00,
2013-06-04 21:20:00,54.6,44.2,30.13,ESE,104,0.0,0.0,68,0.00,,,0.00,0,Wunderground v.1.15,2013-06-05 02:20:00,
2013-06-04 21:30:00,54.5,44.2,30.14,ENE,67,1.0,1.0,68,0.00,,,0.00,0,Wunderground v.1.15,2013-06-05 02:30:00,
2013-06-04 21:40:00,54.4,44.4,30.14,East,82,1.0,1.0,69,0.00,,,0.00,0,Wunderground v.1.15,2013-06-05 02:40:00,
2013-06-04 21:50:00,54.2,44.2,30.14,NNE,12,1.0,1.0,69,0.00,,,0.00,0,Wunderground v.1.15,2013-06-05 02:50:00,
2013-06-04 22:00:00,54.1,43.4,30.14,ENE,73,1.0,1.0,67,0.00,,,0.00,0,Wunderground v.1.15,2013-06-05 03:00:00,
2013-06-04 22:10:00,54.0,43.7,30.14,ENE,58,1.0,1.0,68,0.00,,,0.00,0,Wunderground v.1.15,2013-06-05 03:10:00,
2013-06-04 22:20:00,54.0,44.1,30.15,East,80,1.0,1.0,69,0.00,,,0.00,0,Wunderground v.1.15,2013-06-05 03:20:00,
2013-06-04 22:30:00,54.0,43.7,30.14,ENE,74,1.0,1.0,68,0.00,,,0.00,0,Wunderground v.1.15,2013-06-05 03:30:00,
2013-06-04 22:35:00,53.9,43.6,30.14,NE,52,1.0,1.0,68,0.00,,,0.00,0,Wunderground v.1.15,2013-06-05 03:35:00,
2013-06-04 22:45:00,54.1,43.4,30.15,ESE,111,2.0,4.0,67,0.00,,,0.00,0,Wunderground v.1.15,2013-06-05 03:45:00,
2013-06-04 22:55:00,54.2,43.1,30.15,ENE,74,1.0,1.0,66,0.00,,,0.00,0,Wunderground v.1.15,2013-06-05 03:55:00,
2013-06-04 23:00:00,54.4,43.7,30.15,NE,46,1.0,2.0,67,0.00,,,0.00,0,Wunderground v.1.15,2013-06-05 04:00:00,
2013-06-04 23:05:00,54.4,43.7,30.15,NE,55,0.0,2.0,67,0.00,,,0.00,0,Wunderground v.1.15,2013-06-05 04:05:00,
2013-06-04 23:15:00,54.5,43.8,30.15,NNE,30,0.0,1.0,67,0.00,,,0.00,0,Wunderground v.1.15,2013-06-05 04:15:00,
2013-06-04 23:25:00,54.5,44.2,30.15,ENE,59,1.0,1.0,68,0.00,,,0.00,0,Wunderground v.1.15,2013-06-05 04:25:00,
2013-06-04 23:30:00,54.6,44.2,30.14,South,172,1.0,1.0,68,0.00,,,0.00,0,Wunderground v.1.15,2013-06-05 04:30:00,
2013-06-04 23:35:00,54.7,44.7,30.14,ENE,61,0.0,1.0,69,0.00,,,0.00,0,Wunderground v.1.15,2013-06-05 04:35:00,
2013-06-04 23:45:00,54.9,44.9,30.14,NE,35,0.0,4.0,69,0.00,,,0.00,0,Wunderground v.1.15,2013-06-05 04:45:00,
2013-06-04 23:50:00,54.9,44.9,30.14,East,88,1.0,1.0,69,0.00,,,0.00,0,Wunderground v.1.15,2013-06-05 04:50:00,